createdAt,value
2023-11-24T05:34:47.968Z,99471.47
2023-11-24T05:39:50.664Z,99474.72
2023-11-24T05:44:53.338Z,99456.59
2023-11-24T05:49:55.917Z,99456.13
2023-11-24T05:54:59.612Z,99462.78
2023-11-24T06:00:02.929Z,99473.78
2023-11-24T06:05:25.510Z,99466.28
2023-11-24T06:10:28.236Z,99477.75
2023-11-24T06:15:30.809Z,99468.31
2023-11-24T06:20:33.508Z,99448.97
2023-11-24T06:25:36.081Z,99449.38
2023-11-24T06:30:40.107Z,99448.97
2023-11-24T06:35:43.935Z,99443.06
2023-11-24T06:40:46.840Z,99442.28
2023-11-24T06:45:49.499Z,99454.66
2023-11-24T06:50:52.204Z,99444.97
2023-11-24T06:55:54.825Z,99441.69
2023-11-24T07:00:57.636Z,99437.78
2023-11-24T07:06:01.579Z,99432.94
2023-11-24T07:11:05.680Z,99444.13
2023-11-24T07:16:08.839Z,99436.25
2023-11-24T07:21:11.554Z,99442.59
2023-11-24T07:26:23.254Z,99436.94
2023-11-24T07:31:26.603Z,99434.22
2023-11-24T07:36:29.259Z,99442.94
2023-11-24T07:41:31.884Z,99442.25
2023-11-24T07:46:34.609Z,99434.41
2023-11-24T07:51:37.260Z,99431.31
2023-11-24T07:56:40.046Z,99438.13
2023-11-24T08:01:42.800Z,99432.69
2023-11-24T08:06:46.686Z,99459.31
2023-11-24T08:11:49.679Z,99446.47
2023-11-24T08:16:52.623Z,99449.16
2023-11-24T08:21:55.297Z,99452.22
2023-11-24T08:26:58.392Z,99460.47
2023-11-24T08:32:00.990Z,99453.38
2023-11-24T08:37:04.012Z,99451.31
2023-11-24T08:42:07.419Z,99445.09
2023-11-24T08:53:37.335Z,99443.41
2023-11-24T08:58:40.119Z,99445.44
2023-11-24T09:03:42.875Z,99433.56
2023-11-24T09:08:46.428Z,99436.78
2023-11-24T09:13:57.753Z,99436.88
2023-11-24T09:19:01.093Z,99433.25
2023-11-24T09:24:04.219Z,99411.38
2023-11-24T09:29:06.967Z,99411.84
2023-11-24T09:34:09.664Z,99413.69
2023-11-24T09:39:18.337Z,99402.88
2023-11-24T09:44:21.263Z,99388.91
2023-11-24T09:49:25.816Z,99393.72
2023-11-24T09:54:28.543Z,99399.28
2023-11-24T09:59:31.104Z,99388.59
2023-11-24T10:04:33.822Z,99365.94
2023-11-24T10:09:36.537Z,99357.34
2023-11-24T10:14:44.476Z,99357.34
2023-11-24T10:19:47.074Z,99323.78
2023-11-24T10:24:49.695Z,99334.38
2023-11-24T10:29:53.013Z,99321.13
2023-11-24T10:34:55.678Z,99315.00
2023-11-24T10:40:01.814Z,99306.72
2023-11-24T10:45:07.425Z,99298.47
2023-11-24T10:50:14.007Z,99294.75
2023-11-24T10:55:16.960Z,99292.91
2023-11-24T11:00:21.991Z,99285.56
2023-11-24T11:05:35.676Z,99273.28
2023-11-24T11:10:47.135Z,99246.59
2023-11-24T11:15:52.291Z,99243.56
2023-11-24T11:20:55.530Z,99254.97
2023-11-24T11:25:59.603Z,99244.63
2023-11-24T11:31:25.115Z,99229.63
2023-11-24T11:36:29.588Z,99216.09
2023-11-24T11:41:46.313Z,99198.50
2023-11-24T11:47:12.006Z,99175.53
2023-11-24T11:52:15.071Z,99183.16
2023-11-24T11:57:18.129Z,99174.44
2023-11-24T12:02:24.389Z,99153.78
2023-11-24T12:07:27.737Z,99156.91
2023-11-24T12:12:30.494Z,99152.91
2023-11-24T12:17:33.276Z,99146.63
2023-11-24T12:22:35.975Z,99137.84
2023-11-24T12:27:38.648Z,99127.44
2023-11-24T12:32:42.477Z,99134.13
2023-11-24T12:37:47.626Z,99133.38
2023-11-24T12:42:50.472Z,99109.22
2023-11-24T12:47:53.231Z,99110.59
2023-11-24T12:52:58.453Z,99104.81
2023-11-24T12:58:00.993Z,99098.59
2023-11-24T13:03:03.752Z,99090.78
2023-11-24T13:08:06.905Z,99097.56
2023-11-24T13:13:09.599Z,99095.44
2023-11-24T13:18:12.259Z,99085.22
2023-11-24T13:23:14.896Z,99082.97
2023-11-24T13:28:17.478Z,99072.38
2023-11-24T13:33:20.364Z,99060.22
2023-11-24T13:38:23.071Z,99071.16
2023-11-24T13:43:25.710Z,99069.59
2023-11-24T13:48:30.321Z,99074.16
2023-11-24T13:53:32.936Z,99067.91
2023-11-24T13:58:35.546Z,99063.25
2023-11-24T14:03:38.285Z,99055.41
2023-11-24T14:08:41.020Z,99038.78
2023-11-24T14:13:44.095Z,99052.84
2023-11-24T14:18:46.731Z,99050.03
2023-11-24T14:23:49.334Z,99059.75
2023-11-24T14:28:51.896Z,99045.94
2023-11-24T14:33:55.441Z,99039.06
2023-11-24T14:38:58.589Z,99037.13
2023-11-24T14:44:01.888Z,99030.56
2023-11-24T14:49:05.301Z,99048.03
2023-11-24T14:54:07.982Z,99038.34
2023-11-24T14:59:10.717Z,99031.59
2023-11-24T15:04:20.134Z,99018.94
2023-11-24T15:09:26.428Z,98995.69
2023-11-24T15:14:37.645Z,98999.03
2023-11-24T15:19:40.589Z,98987.47
2023-11-24T15:24:43.733Z,98990.19
2023-11-24T15:29:46.546Z,98973.63
2023-11-24T15:34:49.207Z,98979.06
2023-11-24T15:39:58.328Z,98980.34
2023-11-24T15:45:01.876Z,98986.72
2023-11-24T15:50:09.922Z,98978.25
2023-11-24T15:55:13.303Z,98976.41
2023-11-24T16:00:30.208Z,98970.88
2023-11-24T16:05:34.146Z,98966.03
2023-11-24T16:10:44.555Z,98973.16
2023-11-24T16:15:49.192Z,98970.59
2023-11-24T16:20:51.825Z,98971.88
2023-11-24T16:25:54.416Z,98977.13
2023-11-24T16:30:57.410Z,98985.09
2023-11-24T16:36:03.633Z,98972.44
2023-11-24T16:41:06.309Z,98974.09
2023-11-24T16:46:09.037Z,98980.13
2023-11-24T16:51:11.855Z,98985.19
2023-11-24T16:56:14.610Z,98977.69
2023-11-24T17:01:17.292Z,98974.97
2023-11-24T17:06:19.925Z,98966.50
2023-11-24T17:11:22.511Z,98964.94
2023-11-24T17:16:25.531Z,98965.63
2023-11-24T17:21:28.354Z,98955.50
2023-11-24T17:26:32.341Z,98959.72
2023-11-24T17:31:34.948Z,98962.25
2023-11-24T17:36:37.657Z,98961.16
2023-11-24T17:41:41.118Z,98964.47
2023-11-24T17:46:43.812Z,98959.13
2023-11-24T17:51:46.745Z,98955.44
2023-11-24T17:56:50.737Z,98942.91
2023-11-24T18:01:53.433Z,98978.25
2023-11-24T18:06:56.276Z,98961.59
2023-11-24T18:11:58.888Z,98961.50
2023-11-24T18:17:01.477Z,98979.22
2023-11-24T18:22:04.516Z,98992.72
2023-11-24T18:27:07.297Z,98996.44
2023-11-24T18:32:10.836Z,99000.72
2023-11-24T18:37:13.536Z,99004.19
2023-11-24T18:42:16.196Z,99034.59
2023-11-24T18:47:20.263Z,99029.00
2023-11-24T18:52:24.087Z,99034.50
2023-11-24T18:57:26.784Z,99042.63
2023-11-24T19:02:29.487Z,99039.78
2023-11-24T19:07:32.340Z,99051.44
2023-11-24T19:12:35.002Z,99046.16
2023-11-24T19:17:40.150Z,99050.22
2023-11-24T19:22:42.782Z,99046.81
2023-11-24T19:27:45.358Z,99058.44
2023-11-24T19:32:48.206Z,99068.19
2023-11-24T19:37:50.871Z,99066.34
2023-11-24T19:42:53.662Z,99073.25
2023-11-24T19:47:56.352Z,99075.78
2023-11-24T19:52:59.609Z,99088.16
2023-11-24T19:58:02.689Z,99095.59
2023-11-24T20:03:05.500Z,99097.38
2023-11-24T20:08:08.202Z,99102.50
2023-11-24T20:13:10.860Z,99109.97
2023-11-24T20:18:13.586Z,99109.88
2023-11-24T20:23:16.240Z,99122.69
2023-11-24T20:28:18.950Z,99136.31
2023-11-24T20:33:21.654Z,99138.59
2023-11-24T20:38:25.581Z,99129.78
2023-11-24T20:43:28.990Z,99144.94
2023-11-24T20:48:31.632Z,99145.38
2023-11-24T20:53:34.383Z,99152.59
2023-11-24T20:58:39.290Z,99170.88
2023-11-24T21:03:42.468Z,99174.66
2023-11-24T21:08:45.153Z,99174.66
2023-11-24T21:13:47.905Z,99188.00
2023-11-24T21:18:50.606Z,99202.13
2023-11-24T21:23:53.221Z,99200.38
2023-11-24T21:28:55.792Z,99213.50
2023-11-24T21:33:58.630Z,99212.75
2023-11-24T21:39:03.865Z,99225.91
2023-11-24T21:44:07.898Z,99229.81
2023-11-24T21:49:10.509Z,99230.59
2023-11-24T21:54:13.598Z,99248.06
2023-11-24T21:59:16.134Z,99265.22
2023-11-24T22:04:18.841Z,99278.38
